sensor_id;sensor_type;location;lat;lon;timestamp;pressure;altitude;pressure_sealevel;temperature;humidity
58753;BME280;44525;46.052;13.610;2022-12-07T08:30:29;100423.50;;;5.15;85.98
58753;BME280;44525;46.052;13.610;2022-12-07T08:32:55;100427.19;;;5.31;86.16
58753;BME280;44525;46.052;13.610;2022-12-07T08:35:21;100433.22;;;5.38;85.79
58753;BME280;44525;46.052;13.610;2022-12-07T08:37:47;100435.16;;;5.43;86.55
58753;BME280;44525;46.052;13.610;2022-12-07T08:40:13;100436.09;;;5.54;87.78
58753;BME280;44525;46.052;13.610;2022-12-07T08:42:50;100443.03;;;5.72;86.61
58753;BME280;44525;46.052;13.610;2022-12-07T08:45:16;100438.44;;;5.72;86.40
58753;BME280;44525;46.052;13.610;2022-12-07T08:47:49;100431.28;;;5.83;83.04
58753;BME280;44525;46.052;13.610;2022-12-07T08:50:16;100425.00;;;6.00;83.77
58753;BME280;44525;46.052;13.610;2022-12-07T08:52:43;100435.31;;;6.08;86.01
58753;BME280;44525;46.052;13.610;2022-12-07T08:55:11;100433.63;;;6.02;85.38
58753;BME280;44525;46.052;13.610;2022-12-07T08:57:38;100438.06;;;6.13;84.79
58753;BME280;44525;46.052;13.610;2022-12-07T09:00:06;100446.84;;;6.30;80.86
58753;BME280;44525;46.052;13.610;2022-12-07T09:02:32;100442.03;;;6.38;79.33
58753;BME280;44525;46.052;13.610;2022-12-07T09:04:58;100442.66;;;6.50;78.60
58753;BME280;44525;46.052;13.610;2022-12-07T09:07:24;100436.81;;;6.63;77.69
58753;BME280;44525;46.052;13.610;2022-12-07T09:09:50;100453.69;;;6.86;75.06
58753;BME280;44525;46.052;13.610;2022-12-07T09:12:16;100445.13;;;6.94;74.79
58753;BME280;44525;46.052;13.610;2022-12-07T09:14:44;100445.34;;;6.88;74.86
58753;BME280;44525;46.052;13.610;2022-12-07T09:17:11;100447.13;;;6.72;76.32
58753;BME280;44525;46.052;13.610;2022-12-07T09:19:37;100444.94;;;6.68;78.03
58753;BME280;44525;46.052;13.610;2022-12-07T09:22:03;100446.19;;;6.93;77.67
58753;BME280;44525;46.052;13.610;2022-12-07T09:24:30;100442.16;;;6.96;75.61
58753;BME280;44525;46.052;13.610;2022-12-07T09:26:56;100444.66;;;7.13;76.06
58753;BME280;44525;46.052;13.610;2022-12-07T09:29:22;100437.22;;;7.35;71.97
58753;BME280;44525;46.052;13.610;2022-12-07T09:31:47;100439.38;;;7.38;73.04
58753;BME280;44525;46.052;13.610;2022-12-07T09:34:13;100439.06;;;7.35;73.53
58753;BME280;44525;46.052;13.610;2022-12-07T09:36:38;100428.56;;;7.44;72.15
58753;BME280;44525;46.052;13.610;2022-12-07T09:39:05;100434.56;;;7.51;70.83
58753;BME280;44525;46.052;13.610;2022-12-07T09:41:31;100430.78;;;7.52;70.17
58753;BME280;44525;46.052;13.610;2022-12-07T09:44:20;100436.22;;;7.62;70.30
58753;BME280;44525;46.052;13.610;2022-12-07T09:46:47;100427.81;;;7.53;69.51
58753;BME280;44525;46.052;13.610;2022-12-07T09:49:17;100416.97;;;7.48;69.05
58753;BME280;44525;46.052;13.610;2022-12-07T09:51:44;100421.91;;;7.67;69.35
58753;BME280;44525;46.052;13.610;2022-12-07T09:54:13;100415.72;;;7.77;68.15
58753;BME280;44525;46.052;13.610;2022-12-07T09:56:39;100423.56;;;7.78;68.41
58753;BME280;44525;46.052;13.610;2022-12-07T09:59:04;100414.63;;;7.83;67.55
58753;BME280;44525;46.052;13.610;2022-12-07T10:01:31;100420.06;;;7.93;68.12
58753;BME280;44525;46.052;13.610;2022-12-07T10:04:09;100414.91;;;7.92;67.15
58753;BME280;44525;46.052;13.610;2022-12-07T10:06:37;100414.91;;;7.86;66.88
58753;BME280;44525;46.052;13.610;2022-12-07T10:09:09;100411.41;;;8.01;67.10
58753;BME280;44525;46.052;13.610;2022-12-07T10:11:34;100400.31;;;8.34;65.37
58753;BME280;44525;46.052;13.610;2022-12-07T10:14:12;100395.19;;;8.48;63.50
58753;BME280;44525;46.052;13.610;2022-12-07T10:16:41;100404.06;;;8.79;64.15
58753;BME280;44525;46.052;13.610;2022-12-07T10:19:28;100403.75;;;8.86;61.69
58753;BME280;44525;46.052;13.610;2022-12-07T10:22:01;100400.34;;;9.30;60.28
58753;BME280;44525;46.052;13.610;2022-12-07T10:24:27;100393.63;;;9.72;59.75
58753;BME280;44525;46.052;13.610;2022-12-07T10:26:56;100380.59;;;10.09;57.66
58753;BME280;44525;46.052;13.610;2022-12-07T10:29:42;100387.97;;;10.38;56.98
58753;BME280;44525;46.052;13.610;2022-12-07T10:34:42;100380.75;;;10.81;57.05
58753;BME280;44525;46.052;13.610;2022-12-07T10:42:16;100367.78;;;11.40;52.95
58753;BME280;44525;46.052;13.610;2022-12-07T10:44:42;100374.69;;;11.33;52.90
58753;BME280;44525;46.052;13.610;2022-12-07T10:48:15;100361.16;;;11.85;51.80
58753;BME280;44525;46.052;13.610;2022-12-07T11:02:02;100353.78;;;12.65;50.51
58753;BME280;44525;46.052;13.610;2022-12-07T11:04:47;100349.78;;;12.90;47.35
58753;BME280;44525;46.052;13.610;2022-12-07T11:18:59;100323.53;;;13.45;45.78
58753;BME280;44525;46.052;13.610;2022-12-07T11:24:12;100328.13;;;13.22;46.13
58753;BME280;44525;46.052;13.610;2022-12-07T11:37:37;100304.25;;;14.98;41.52
58753;BME280;44525;46.052;13.610;2022-12-07T11:40:15;100306.22;;;15.24;41.82
58753;BME280;44525;46.052;13.610;2022-12-07T11:42:51;100308.13;;;14.97;41.52
58753;BME280;44525;46.052;13.610;2022-12-07T11:45:23;100307.53;;;15.26;40.72
58753;BME280;44525;46.052;13.610;2022-12-07T11:47:54;100299.63;;;15.16;41.43
58753;BME280;44525;46.052;13.610;2022-12-07T11:50:41;100301.72;;;14.53;41.72
58753;BME280;44525;46.052;13.610;2022-12-07T11:55:43;100300.88;;;15.01;41.34
58753;BME280;44525;46.052;13.610;2022-12-07T12:01:02;100282.41;;;15.51;40.62
58753;BME280;44525;46.052;13.610;2022-12-07T12:03:34;100284.19;;;15.38;41.08
58753;BME280;44525;46.052;13.610;2022-12-07T12:06:02;100278.56;;;15.34;40.45
58753;BME280;44525;46.052;13.610;2022-12-07T12:08:32;100268.50;;;16.00;39.31
58753;BME280;44525;46.052;13.610;2022-12-07T12:11:14;100267.47;;;16.52;38.60
58753;BME280;44525;46.052;13.610;2022-12-07T12:19:45;100258.78;;;16.79;37.21
58753;BME280;44525;46.052;13.610;2022-12-07T12:22:27;100252.81;;;17.28;36.51
58753;BME280;44525;46.052;13.610;2022-12-07T12:24:57;100264.75;;;17.66;36.64
58753;BME280;44525;46.052;13.610;2022-12-07T12:27:33;100255.63;;;17.19;36.22
58753;BME280;44525;46.052;13.610;2022-12-07T12:30:39;100256.09;;;17.22;35.70
58753;BME280;44525;46.052;13.610;2022-12-07T12:33:29;100252.53;;;17.76;35.57
58753;BME280;44525;46.052;13.610;2022-12-07T12:47:00;100242.91;;;18.52;33.35
58753;BME280;44525;46.052;13.610;2022-12-07T12:49:37;100240.81;;;18.86;34.36
58753;BME280;44525;46.052;13.610;2022-12-07T12:54:38;100237.94;;;19.07;32.42
58753;BME280;44525;46.052;13.610;2022-12-07T12:57:21;100242.66;;;18.70;32.16
58753;BME280;44525;46.052;13.610;2022-12-07T13:02:25;100236.88;;;19.40;31.94
58753;BME280;44525;46.052;13.610;2022-12-07T13:04:55;100236.84;;;19.69;30.88
58753;BME280;44525;46.052;13.610;2022-12-07T13:07:52;100230.47;;;20.60;30.83
58753;BME280;44525;46.052;13.610;2022-12-07T13:15:40;100216.94;;;20.20;30.97
58753;BME280;44525;46.052;13.610;2022-12-07T13:28:50;100223.88;;;14.50;39.26
58753;BME280;44525;46.052;13.610;2022-12-07T13:31:23;100210.31;;;12.97;42.89
58753;BME280;44525;46.052;13.610;2022-12-07T13:33:51;100218.91;;;12.26;45.80
58753;BME280;44525;46.052;13.610;2022-12-07T13:36:22;100221.75;;;11.88;49.58
58753;BME280;44525;46.052;13.610;2022-12-07T13:38:56;100232.38;;;11.04;53.81
58753;BME280;44525;46.052;13.610;2022-12-07T13:41:24;100225.66;;;10.97;54.84
58753;BME280;44525;46.052;13.610;2022-12-07T13:44:11;100226.00;;;10.52;57.47
58753;BME280;44525;46.052;13.610;2022-12-07T13:49:16;100233.78;;;10.10;60.19
58753;BME280;44525;46.052;13.610;2022-12-07T13:51:42;100237.19;;;9.97;55.94
58753;BME280;44525;46.052;13.610;2022-12-07T13:54:12;100227.38;;;10.01;55.15
58753;BME280;44525;46.052;13.610;2022-12-07T13:56:38;100228.41;;;10.05;53.89
58753;BME280;44525;46.052;13.610;2022-12-07T13:59:25;100231.66;;;10.07;51.78
58753;BME280;44525;46.052;13.610;2022-12-07T14:01:53;100237.56;;;10.14;48.86
58753;BME280;44525;46.052;13.610;2022-12-07T14:06:59;100236.44;;;10.15;51.13
58753;BME280;44525;46.052;13.610;2022-12-07T14:09:27;100241.84;;;10.15;51.55
58753;BME280;44525;46.052;13.610;2022-12-07T14:11:54;100233.59;;;10.01;50.33
58753;BME280;44525;46.052;13.610;2022-12-07T14:14:22;100240.09;;;10.06;49.20
58753;BME280;44525;46.052;13.610;2022-12-07T14:22:15;100240.13;;;10.00;51.04
58753;BME280;44525;46.052;13.610;2022-12-07T14:24:43;100244.78;;;9.95;53.19
58753;BME280;44525;46.052;13.610;2022-12-07T14:27:23;100243.19;;;9.64;54.25
58753;BME280;44525;46.052;13.610;2022-12-07T14:29:51;100250.47;;;9.64;53.59
58753;BME280;44525;46.052;13.610;2022-12-07T14:32:23;100256.97;;;9.68;53.13
58753;BME280;44525;46.052;13.610;2022-12-07T14:37:20;100256.72;;;9.30;55.00
58753;BME280;44525;46.052;13.610;2022-12-07T14:39:45;100263.81;;;9.26;55.00
58753;BME280;44525;46.052;13.610;2022-12-07T14:42:11;100267.78;;;8.94;56.17
58753;BME280;44525;46.052;13.610;2022-12-07T14:44:36;100268.78;;;9.08;54.32
58753;BME280;44525;46.052;13.610;2022-12-07T14:47:02;100271.44;;;9.13;56.59
58753;BME280;44525;46.052;13.610;2022-12-07T14:49:27;100270.66;;;9.13;57.71
58753;BME280;44525;46.052;13.610;2022-12-07T14:51:54;100269.22;;;8.76;58.55
58753;BME280;44525;46.052;13.610;2022-12-07T14:54:22;100270.53;;;8.84;58.23
58753;BME280;44525;46.052;13.610;2022-12-07T14:56:52;100273.53;;;8.82;58.68
58753;BME280;44525;46.052;13.610;2022-12-07T14:59:18;100274.75;;;8.45;61.88
58753;BME280;44525;46.052;13.610;2022-12-07T15:01:44;100289.34;;;8.34;62.83
58753;BME280;44525;46.052;13.610;2022-12-07T15:04:09;100289.41;;;8.18;64.49
58753;BME280;44525;46.052;13.610;2022-12-07T15:06:36;100285.84;;;8.28;65.26
58753;BME280;44525;46.052;13.610;2022-12-07T15:09:02;100285.66;;;7.94;65.71
58753;BME280;44525;46.052;13.610;2022-12-07T15:11:28;100291.59;;;8.01;66.43
58753;BME280;44525;46.052;13.610;2022-12-07T15:13:53;100294.84;;;7.87;68.50
58753;BME280;44525;46.052;13.610;2022-12-07T15:16:37;100285.94;;;7.87;68.50
58753;BME280;44525;46.052;13.610;2022-12-07T15:19:05;100305.41;;;7.79;68.75
58753;BME280;44525;46.052;13.610;2022-12-07T15:21:32;100303.22;;;7.60;67.14
58753;BME280;44525;46.052;13.610;2022-12-07T15:23:57;100306.75;;;7.66;65.92
58753;BME280;44525;46.052;13.610;2022-12-07T15:26:23;100298.91;;;7.80;65.26
58753;BME280;44525;46.052;13.610;2022-12-07T15:28:48;100299.72;;;7.54;66.84
58753;BME280;44525;46.052;13.610;2022-12-07T15:31:16;100306.47;;;7.57;67.01
58753;BME280;44525;46.052;13.610;2022-12-07T15:33:42;100295.66;;;7.42;70.19
58753;BME280;44525;46.052;13.610;2022-12-07T15:36:22;100298.34;;;7.31;69.22
58753;BME280;44525;46.052;13.610;2022-12-07T15:38:48;100297.78;;;7.40;70.04
58753;BME280;44525;46.052;13.610;2022-12-07T15:41:15;100310.47;;;7.24;71.36
58753;BME280;44525;46.052;13.610;2022-12-07T15:43:40;100316.59;;;6.93;71.46
58753;BME280;44525;46.052;13.610;2022-12-07T15:46:38;100321.97;;;6.88;72.82
58753;BME280;44525;46.052;13.610;2022-12-07T15:49:06;100323.22;;;6.65;76.05
58753;BME280;44525;46.052;13.610;2022-12-07T15:51:33;100311.22;;;7.03;64.75
58753;BME280;44525;46.052;13.610;2022-12-07T15:53:58;100326.38;;;7.20;67.69
58753;BME280;44525;46.052;13.610;2022-12-07T15:56:24;100317.47;;;7.25;64.71
58753;BME280;44525;46.052;13.610;2022-12-07T15:58:50;100331.81;;;7.30;66.14
58753;BME280;44525;46.052;13.610;2022-12-07T16:01:19;100317.50;;;7.30;65.80
58753;BME280;44525;46.052;13.610;2022-12-07T16:03:45;100322.13;;;7.29;66.42
58753;BME280;44525;46.052;13.610;2022-12-07T16:06:12;100305.63;;;7.36;62.92
58753;BME280;44525;46.052;13.610;2022-12-07T16:08:42;100320.19;;;7.19;68.09
58753;BME280;44525;46.052;13.610;2022-12-07T16:11:09;100307.25;;;7.37;63.56
58753;BME280;44525;46.052;13.610;2022-12-07T16:13:35;100321.53;;;7.17;65.47
58753;BME280;44525;46.052;13.610;2022-12-07T16:16:06;100314.72;;;7.04;65.96
58753;BME280;44525;46.052;13.610;2022-12-07T16:18:32;100310.22;;;7.35;63.33
58753;BME280;44525;46.052;13.610;2022-12-07T16:20:58;100311.88;;;7.57;61.13
58753;BME280;44525;46.052;13.610;2022-12-07T16:23:24;100315.66;;;7.61;61.56
58753;BME280;44525;46.052;13.610;2022-12-07T16:25:49;100324.31;;;7.63;62.65
58753;BME280;44525;46.052;13.610;2022-12-07T16:28:14;100312.97;;;7.56;62.99
58753;BME280;44525;46.052;13.610;2022-12-07T16:30:40;100333.72;;;7.35;64.78
58753;BME280;44525;46.052;13.610;2022-12-07T16:33:05;100328.59;;;7.28;64.79
58753;BME280;44525;46.052;13.610;2022-12-07T16:35:31;100329.13;;;7.25;64.52
58753;BME280;44525;46.052;13.610;2022-12-07T16:37:56;100332.38;;;7.32;65.64
58753;BME280;44525;46.052;13.610;2022-12-07T16:40:22;100333.88;;;6.97;66.30
58753;BME280;44525;46.052;13.610;2022-12-07T16:42:47;100332.47;;;6.84;66.88
58753;BME280;44525;46.052;13.610;2022-12-07T16:45:14;100331.25;;;6.55;69.58
58753;BME280;44525;46.052;13.610;2022-12-07T16:47:40;100339.03;;;7.04;64.01
58753;BME280;44525;46.052;13.610;2022-12-07T16:50:06;100345.00;;;7.11;64.65
58753;BME280;44525;46.052;13.610;2022-12-07T16:52:33;100347.34;;;6.92;65.87
58753;BME280;44525;46.052;13.610;2022-12-07T16:54:59;100347.91;;;6.94;67.03
58753;BME280;44525;46.052;13.610;2022-12-07T16:57:25;100347.13;;;7.04;67.51
58753;BME280;44525;46.052;13.610;2022-12-07T16:59:51;100353.81;;;6.81;70.34
58753;BME280;44525;46.052;13.610;2022-12-07T17:02:17;100355.03;;;6.58;69.79
58753;BME280;44525;46.052;13.610;2022-12-07T17:04:43;100352.19;;;6.37;71.25
58753;BME280;44525;46.052;13.610;2022-12-07T17:07:12;100357.19;;;6.56;71.94
58753;BME280;44525;46.052;13.610;2022-12-07T17:09:39;100362.78;;;6.44;71.38
58753;BME280;44525;46.052;13.610;2022-12-07T17:12:04;100352.66;;;6.24;71.65
58753;BME280;44525;46.052;13.610;2022-12-07T17:14:31;100365.19;;;6.08;72.34
58753;BME280;44525;46.052;13.610;2022-12-07T17:17:15;100360.50;;;5.66;75.00
58753;BME280;44525;46.052;13.610;2022-12-07T17:19:41;100365.50;;;5.84;74.44
58753;BME280;44525;46.052;13.610;2022-12-07T17:22:08;100361.03;;;5.95;74.84
58753;BME280;44525;46.052;13.610;2022-12-07T17:24:36;100359.84;;;5.80;75.22
58753;BME280;44525;46.052;13.610;2022-12-07T17:27:02;100363.41;;;5.86;74.62
58753;BME280;44525;46.052;13.610;2022-12-07T17:29:28;100353.34;;;5.82;75.02
58753;BME280;44525;46.052;13.610;2022-12-07T17:31:53;100357.81;;;5.66;75.84
58753;BME280;44525;46.052;13.610;2022-12-07T17:34:19;100359.00;;;5.80;75.77
58753;BME280;44525;46.052;13.610;2022-12-07T17:36:44;100377.63;;;5.54;76.43
58753;BME280;44525;46.052;13.610;2022-12-07T17:39:13;100367.91;;;5.53;76.97
58753;BME280;44525;46.052;13.610;2022-12-07T17:41:39;100372.69;;;5.46;77.18
58753;BME280;44525;46.052;13.610;2022-12-07T17:44:24;100371.63;;;5.47;77.62
58753;BME280;44525;46.052;13.610;2022-12-07T17:46:51;100365.75;;;5.77;74.36
58753;BME280;44525;46.052;13.610;2022-12-07T17:49:22;100364.09;;;6.04;74.39
58753;BME280;44525;46.052;13.610;2022-12-07T17:51:48;100357.59;;;6.00;76.64
58753;BME280;44525;46.052;13.610;2022-12-07T17:54:32;100367.16;;;5.85;75.94
58753;BME280;44525;46.052;13.610;2022-12-07T17:57:00;100367.66;;;5.82;74.33
58753;BME280;44525;46.052;13.610;2022-12-07T17:59:26;100366.81;;;5.76;76.40
58753;BME280;44525;46.052;13.610;2022-12-07T18:01:52;100363.84;;;5.78;78.51
58753;BME280;44525;46.052;13.610;2022-12-07T18:04:17;100366.34;;;5.57;78.84
58753;BME280;44525;46.052;13.610;2022-12-07T18:06:43;100370.78;;;5.69;78.18
58753;BME280;44525;46.052;13.610;2022-12-07T18:09:09;100370.63;;;5.53;78.06
58753;BME280;44525;46.052;13.610;2022-12-07T18:11:35;100368.03;;;5.36;78.97
58753;BME280;44525;46.052;13.610;2022-12-07T18:14:01;100363.19;;;5.38;77.39
58753;BME280;44525;46.052;13.610;2022-12-07T18:16:28;100366.31;;;5.52;77.47
58753;BME280;44525;46.052;13.610;2022-12-07T18:18:58;100379.34;;;5.38;78.01
58753;BME280;44525;46.052;13.610;2022-12-07T18:21:26;100385.59;;;5.44;79.37
58753;BME280;44525;46.052;13.610;2022-12-07T18:23:58;100386.63;;;5.38;79.48
58753;BME280;44525;46.052;13.610;2022-12-07T18:26:27;100373.63;;;5.57;78.16
58753;BME280;44525;46.052;13.610;2022-12-07T18:28:53;100377.28;;;5.73;77.37
58753;BME280;44525;46.052;13.610;2022-12-07T18:31:19;100386.78;;;5.53;76.86
58753;BME280;44525;46.052;13.610;2022-12-07T18:33:45;100386.19;;;5.73;76.03
58753;BME280;44525;46.052;13.610;2022-12-07T18:36:12;100380.63;;;5.85;75.83
58753;BME280;44525;46.052;13.610;2022-12-07T18:38:38;100382.78;;;6.15;74.80
58753;BME280;44525;46.052;13.610;2022-12-07T18:41:06;100376.16;;;6.28;73.45
58753;BME280;44525;46.052;13.610;2022-12-07T18:43:32;100379.25;;;6.47;72.08
58753;BME280;44525;46.052;13.610;2022-12-07T18:45:57;100379.84;;;6.60;71.65
58753;BME280;44525;46.052;13.610;2022-12-07T18:48:23;100376.25;;;6.92;72.33
58753;BME280;44525;46.052;13.610;2022-12-07T18:51:00;100374.06;;;6.89;71.62
58753;BME280;44525;46.052;13.610;2022-12-07T18:53:26;100374.81;;;6.74;72.49
58753;BME280;44525;46.052;13.610;2022-12-07T18:58:30;100371.81;;;6.70;71.38
58753;BME280;44525;46.052;13.610;2022-12-07T19:00:55;100369.16;;;6.80;71.01
58753;BME280;44525;46.052;13.610;2022-12-07T19:03:21;100384.59;;;6.85;69.93
58753;BME280;44525;46.052;13.610;2022-12-07T19:05:47;100366.78;;;6.84;70.81
58753;BME280;44525;46.052;13.610;2022-12-07T19:08:12;100376.28;;;7.02;69.19
58753;BME280;44525;46.052;13.610;2022-12-07T19:10:38;100367.13;;;7.08;68.89
58753;BME280;44525;46.052;13.610;2022-12-07T19:13:03;100373.09;;;7.15;69.03
58753;BME280;44525;46.052;13.610;2022-12-07T19:15:30;100374.47;;;7.18;68.88
58753;BME280;44525;46.052;13.610;2022-12-07T19:17:55;100373.91;;;7.16;69.71
58753;BME280;44525;46.052;13.610;2022-12-07T19:20:22;100370.97;;;7.28;68.14
58753;BME280;44525;46.052;13.610;2022-12-07T19:22:48;100371.81;;;7.28;69.12
58753;BME280;44525;46.052;13.610;2022-12-07T19:25:13;100378.28;;;7.22;69.09
58753;BME280;44525;46.052;13.610;2022-12-07T19:27:39;100387.31;;;6.90;70.13
58753;BME280;44525;46.052;13.610;2022-12-07T19:30:05;100382.44;;;6.92;71.14
58753;BME280;44525;46.052;13.610;2022-12-07T19:32:31;100381.19;;;7.10;69.89
58753;BME280;44525;46.052;13.610;2022-12-07T19:34:57;100373.38;;;7.09;70.04
58753;BME280;44525;46.052;13.610;2022-12-07T19:37:22;100375.50;;;7.07;70.10
58753;BME280;44525;46.052;13.610;2022-12-07T19:39:48;100373.88;;;7.06;69.58
58753;BME280;44525;46.052;13.610;2022-12-07T19:42:16;100382.28;;;7.09;69.45
58753;BME280;44525;46.052;13.610;2022-12-07T19:44:41;100377.72;;;7.20;69.64
58753;BME280;44525;46.052;13.610;2022-12-07T19:47:07;100386.91;;;7.19;69.20
58753;BME280;44525;46.052;13.610;2022-12-07T19:49:34;100381.00;;;7.32;68.57
58753;BME280;44525;46.052;13.610;2022-12-07T19:52:06;100383.72;;;7.37;67.97
58753;BME280;44525;46.052;13.610;2022-12-07T19:54:33;100386.94;;;7.40;68.16
58753;BME280;44525;46.052;13.610;2022-12-07T19:56:59;100376.44;;;7.43;67.94
58753;BME280;44525;46.052;13.610;2022-12-07T19:59:27;100376.94;;;7.35;67.94
58753;BME280;44525;46.052;13.610;2022-12-07T20:01:53;100381.81;;;7.33;68.27
58753;BME280;44525;46.052;13.610;2022-12-07T20:04:21;100387.44;;;7.21;68.75
58753;BME280;44525;46.052;13.610;2022-12-07T20:06:48;100377.47;;;7.27;68.72
58753;BME280;44525;46.052;13.610;2022-12-07T20:09:15;100387.44;;;7.21;68.99
58753;BME280;44525;46.052;13.610;2022-12-07T20:11:40;100384.25;;;7.29;68.41
58753;BME280;44525;46.052;13.610;2022-12-07T20:14:25;100381.25;;;7.20;69.36
58753;BME280;44525;46.052;13.610;2022-12-07T20:16:51;100388.47;;;7.10;69.25
58753;BME280;44525;46.052;13.610;2022-12-07T20:19:17;100384.72;;;7.11;68.52
58753;BME280;44525;46.052;13.610;2022-12-07T20:21:43;100386.38;;;7.22;68.13
58753;BME280;44525;46.052;13.610;2022-12-07T20:24:14;100390.59;;;7.02;70.07
58753;BME280;44525;46.052;13.610;2022-12-07T20:26:44;100393.66;;;7.16;69.44
58753;BME280;44525;46.052;13.610;2022-12-07T20:29:12;100396.63;;;7.20;68.36
58753;BME280;44525;46.052;13.610;2022-12-07T20:31:39;100392.22;;;6.98;68.83
58753;BME280;44525;46.052;13.610;2022-12-07T20:34:04;100388.47;;;7.05;69.15
58753;BME280;44525;46.052;13.610;2022-12-07T20:36:31;100395.94;;;6.92;69.87
58753;BME280;44525;46.052;13.610;2022-12-07T20:38:58;100389.00;;;7.07;68.74
58753;BME280;44525;46.052;13.610;2022-12-07T20:41:25;100384.66;;;7.06;68.61
58753;BME280;44525;46.052;13.610;2022-12-07T20:44:08;100393.81;;;6.99;68.32
58753;BME280;44525;46.052;13.610;2022-12-07T20:46:34;100389.78;;;7.02;68.88
58753;BME280;44525;46.052;13.610;2022-12-07T20:49:00;100387.88;;;6.97;68.54
58753;BME280;44525;46.052;13.610;2022-12-07T20:51:27;100393.34;;;7.13;67.46
58753;BME280;44525;46.052;13.610;2022-12-07T20:53:53;100391.47;;;7.13;67.56
58753;BME280;44525;46.052;13.610;2022-12-07T20:56:21;100387.13;;;7.12;67.67
58753;BME280;44525;46.052;13.610;2022-12-07T20:58:47;100385.22;;;7.08;68.47
58753;BME280;44525;46.052;13.610;2022-12-07T21:01:13;100395.56;;;7.21;68.32
58753;BME280;44525;46.052;13.610;2022-12-07T21:03:38;100395.44;;;6.95;67.85
58753;BME280;44525;46.052;13.610;2022-12-07T21:06:04;100394.13;;;7.08;68.11
58753;BME280;44525;46.052;13.610;2022-12-07T21:08:29;100379.03;;;7.12;68.20
58753;BME280;44525;46.052;13.610;2022-12-07T21:10:55;100389.53;;;7.03;68.17
58753;BME280;44525;46.052;13.610;2022-12-07T21:13:22;100389.56;;;7.09;67.35
58753;BME280;44525;46.052;13.610;2022-12-07T21:15:48;100387.13;;;7.07;68.63
58753;BME280;44525;46.052;13.610;2022-12-07T21:18:13;100380.38;;;7.10;67.49
58753;BME280;44525;46.052;13.610;2022-12-07T21:20:39;100381.44;;;7.03;67.38
58753;BME280;44525;46.052;13.610;2022-12-07T21:23:05;100383.28;;;6.98;68.06
58753;BME280;44525;46.052;13.610;2022-12-07T21:25:30;100378.47;;;7.00;68.02
58753;BME280;44525;46.052;13.610;2022-12-07T21:27:56;100368.75;;;7.09;67.26
58753;BME280;44525;46.052;13.610;2022-12-07T21:30:23;100371.19;;;7.11;67.10
58753;BME280;44525;46.052;13.610;2022-12-07T21:32:49;100371.38;;;6.94;67.73
58753;BME280;44525;46.052;13.610;2022-12-07T21:35:14;100373.31;;;6.98;68.03
58753;BME280;44525;46.052;13.610;2022-12-07T21:37:40;100364.09;;;6.89;68.09
58753;BME280;44525;46.052;13.610;2022-12-07T21:40:06;100372.13;;;6.74;68.60
58753;BME280;44525;46.052;13.610;2022-12-07T21:42:31;100385.09;;;6.82;68.12
58753;BME280;44525;46.052;13.610;2022-12-07T21:44:57;100386.50;;;6.90;68.69
58753;BME280;44525;46.052;13.610;2022-12-07T21:47:22;100384.03;;;6.78;68.35
58753;BME280;44525;46.052;13.610;2022-12-07T21:49:48;100382.38;;;6.77;68.88
58753;BME280;44525;46.052;13.610;2022-12-07T21:52:13;100375.34;;;6.76;68.53
58753;BME280;44525;46.052;13.610;2022-12-07T21:54:39;100392.06;;;6.73;68.88
58753;BME280;44525;46.052;13.610;2022-12-07T21:57:04;100396.94;;;6.76;68.52
58753;BME280;44525;46.052;13.610;2022-12-07T21:59:30;100388.63;;;6.88;68.45
58753;BME280;44525;46.052;13.610;2022-12-07T22:01:55;100382.13;;;6.83;68.43
58753;BME280;44525;46.052;13.610;2022-12-07T22:04:23;100380.28;;;6.84;68.70
58753;BME280;44525;46.052;13.610;2022-12-07T22:06:50;100385.88;;;6.77;68.06
58753;BME280;44525;46.052;13.610;2022-12-07T22:09:16;100384.09;;;6.93;68.26
58753;BME280;44525;46.052;13.610;2022-12-07T22:11:43;100379.19;;;6.85;67.75
58753;BME280;44525;46.052;13.610;2022-12-07T22:14:09;100377.72;;;6.67;69.06
58753;BME280;44525;46.052;13.610;2022-12-07T22:16:53;100373.09;;;6.57;69.01
58753;BME280;44525;46.052;13.610;2022-12-07T22:19:19;100378.31;;;6.74;68.71
58753;BME280;44525;46.052;13.610;2022-12-07T22:21:44;100368.94;;;6.87;69.00
58753;BME280;44525;46.052;13.610;2022-12-07T22:24:10;100378.06;;;6.76;68.14
58753;BME280;44525;46.052;13.610;2022-12-07T22:26:38;100395.91;;;6.82;68.44
58753;BME280;44525;46.052;13.610;2022-12-07T22:29:04;100378.69;;;6.88;68.33
58753;BME280;44525;46.052;13.610;2022-12-07T22:31:30;100382.91;;;6.74;68.74
58753;BME280;44525;46.052;13.610;2022-12-07T22:33:56;100385.63;;;6.74;68.93
58753;BME280;44525;46.052;13.610;2022-12-07T22:36:21;100388.56;;;6.72;68.87
58753;BME280;44525;46.052;13.610;2022-12-07T22:38:47;100385.88;;;6.77;69.11
58753;BME280;44525;46.052;13.610;2022-12-07T22:41:19;100387.78;;;6.77;69.11
58753;BME280;44525;46.052;13.610;2022-12-07T22:43:45;100392.59;;;6.70;69.33
58753;BME280;44525;46.052;13.610;2022-12-07T22:46:11;100389.84;;;6.59;69.78
58753;BME280;44525;46.052;13.610;2022-12-07T22:48:36;100388.44;;;6.52;70.56
58753;BME280;44525;46.052;13.610;2022-12-07T22:51:02;100389.81;;;6.54;70.33
58753;BME280;44525;46.052;13.610;2022-12-07T22:53:28;100380.94;;;6.59;70.53
58753;BME280;44525;46.052;13.610;2022-12-07T22:55:53;100373.16;;;6.67;70.39
58753;BME280;44525;46.052;13.610;2022-12-07T22:58:19;100373.97;;;6.63;71.08
58753;BME280;44525;46.052;13.610;2022-12-07T23:00:44;100362.91;;;6.70;70.32
58753;BME280;44525;46.052;13.610;2022-12-07T23:03:10;100364.97;;;6.52;70.40
58753;BME280;44525;46.052;13.610;2022-12-07T23:05:45;100364.50;;;6.65;70.86
58753;BME280;44525;46.052;13.610;2022-12-07T23:08:11;100367.50;;;6.69;70.26